sensor_id;sensor_type;location;lat;lon;timestamp;pressure;altitude;pressure_sealevel;temperature;humidity
54996;BME280;40893;47.146;9.126;2022-07-15T00:00:07;91411.13;;;22.25;49.85
54996;BME280;40893;47.146;9.126;2022-07-15T00:02:34;91418.31;;;22.28;50.54
54996;BME280;40893;47.146;9.126;2022-07-15T00:05:00;91420.44;;;22.23;51.74
54996;BME280;40893;47.146;9.126;2022-07-15T00:07:25;91424.41;;;22.17;53.47
54996;BME280;40893;47.146;9.126;2022-07-15T00:09:51;91411.97;;;22.10;51.93
54996;BME280;40893;47.146;9.126;2022-07-15T00:12:35;91423.44;;;22.05;52.92
54996;BME280;40893;47.146;9.126;2022-07-15T00:15:01;91413.94;;;21.97;53.56
54996;BME280;40893;47.146;9.126;2022-07-15T00:17:27;91425.41;;;21.93;54.09
54996;BME280;40893;47.146;9.126;2022-07-15T00:19:53;91420.13;;;21.89;55.00
54996;BME280;40893;47.146;9.126;2022-07-15T00:22:19;91418.50;;;21.85;55.48
54996;BME280;40893;47.146;9.126;2022-07-15T00:24:44;91417.94;;;21.76;55.45
54996;BME280;40893;47.146;9.126;2022-07-15T00:27:10;91412.22;;;21.70;55.73
54996;BME280;40893;47.146;9.126;2022-07-15T00:29:36;91412.16;;;21.66;56.15
54996;BME280;40893;47.146;9.126;2022-07-15T00:32:02;91413.59;;;21.64;56.99
54996;BME280;40893;47.146;9.126;2022-07-15T00:34:27;91411.00;;;21.64;56.76
54996;BME280;40893;47.146;9.126;2022-07-15T00:36:53;91416.78;;;21.57;56.82
54996;BME280;40893;47.146;9.126;2022-07-15T00:39:18;91412.28;;;21.54;57.40
54996;BME280;40893;47.146;9.126;2022-07-15T00:41:44;91414.13;;;21.54;57.63
54996;BME280;40893;47.146;9.126;2022-07-15T00:44:10;91416.41;;;21.55;57.79
54996;BME280;40893;47.146;9.126;2022-07-15T00:46:37;91414.47;;;21.36;57.29
54996;BME280;40893;47.146;9.126;2022-07-15T00:49:05;91415.13;;;21.33;58.50
54996;BME280;40893;47.146;9.126;2022-07-15T00:51:52;91416.59;;;21.31;58.40
54996;BME280;40893;47.146;9.126;2022-07-15T00:54:25;91408.06;;;21.34;60.70
54996;BME280;40893;47.146;9.126;2022-07-15T00:56:56;91406.50;;;21.29;59.60
54996;BME280;40893;47.146;9.126;2022-07-15T00:59:23;91405.31;;;21.27;59.83
54996;BME280;40893;47.146;9.126;2022-07-15T01:01:51;91402.03;;;21.30;59.75
54996;BME280;40893;47.146;9.126;2022-07-15T01:04:18;91403.78;;;21.26;59.06
54996;BME280;40893;47.146;9.126;2022-07-15T01:06:45;91408.47;;;21.05;60.35
54996;BME280;40893;47.146;9.126;2022-07-15T01:09:11;91414.97;;;20.95;60.44
54996;BME280;40893;47.146;9.126;2022-07-15T01:11:36;91419.09;;;20.96;60.63
54996;BME280;40893;47.146;9.126;2022-07-15T01:14:03;91415.03;;;20.83;60.09
54996;BME280;40893;47.146;9.126;2022-07-15T01:16:28;91403.41;;;20.80;61.73
54996;BME280;40893;47.146;9.126;2022-07-15T01:18:54;91410.56;;;20.83;62.66
54996;BME280;40893;47.146;9.126;2022-07-15T01:21:20;91411.25;;;20.80;63.26
54996;BME280;40893;47.146;9.126;2022-07-15T01:23:45;91416.56;;;20.84;63.01
54996;BME280;40893;47.146;9.126;2022-07-15T01:26:12;91417.38;;;20.72;62.99
54996;BME280;40893;47.146;9.126;2022-07-15T01:28:39;91423.16;;;20.65;62.91
54996;BME280;40893;47.146;9.126;2022-07-15T01:31:05;91421.31;;;20.66;63.38
54996;BME280;40893;47.146;9.126;2022-07-15T01:33:32;91422.75;;;20.63;62.77
54996;BME280;40893;47.146;9.126;2022-07-15T01:35:59;91429.22;;;20.54;63.04
54996;BME280;40893;47.146;9.126;2022-07-15T01:38:27;91426.72;;;20.45;64.39
54996;BME280;40893;47.146;9.126;2022-07-15T01:40:53;91425.47;;;20.39;64.78
54996;BME280;40893;47.146;9.126;2022-07-15T01:43:19;91439.16;;;20.36;63.93
54996;BME280;40893;47.146;9.126;2022-07-15T01:45:45;91441.97;;;20.31;64.95
54996;BME280;40893;47.146;9.126;2022-07-15T01:48:12;91436.44;;;20.20;64.85
54996;BME280;40893;47.146;9.126;2022-07-15T01:50:58;91435.03;;;20.23;66.71
54996;BME280;40893;47.146;9.126;2022-07-15T01:53:25;91442.19;;;20.26;66.25
54996;BME280;40893;47.146;9.126;2022-07-15T01:55:51;91436.00;;;20.30;65.97
54996;BME280;40893;47.146;9.126;2022-07-15T01:58:17;91438.25;;;20.32;66.54
54996;BME280;40893;47.146;9.126;2022-07-15T02:00:42;91436.41;;;20.33;64.85
54996;BME280;40893;47.146;9.126;2022-07-15T02:03:08;91438.69;;;20.34;66.16
54996;BME280;40893;47.146;9.126;2022-07-15T02:05:34;91431.97;;;20.33;66.20
54996;BME280;40893;47.146;9.126;2022-07-15T02:08:00;91437.31;;;20.24;65.24
54996;BME280;40893;47.146;9.126;2022-07-15T02:10:26;91432.91;;;20.13;66.33
54996;BME280;40893;47.146;9.126;2022-07-15T02:13:08;91430.28;;;20.13;66.52
54996;BME280;40893;47.146;9.126;2022-07-15T02:15:34;91432.38;;;20.07;66.79
54996;BME280;40893;47.146;9.126;2022-07-15T02:17:59;91426.63;;;20.02;66.54
54996;BME280;40893;47.146;9.126;2022-07-15T02:20:25;91431.19;;;20.05;67.49
54996;BME280;40893;47.146;9.126;2022-07-15T02:22:51;91431.63;;;20.07;67.61
54996;BME280;40893;47.146;9.126;2022-07-15T02:25:16;91432.72;;;20.06;67.87
54996;BME280;40893;47.146;9.126;2022-07-15T02:27:42;91427.22;;;19.95;66.13
54996;BME280;40893;47.146;9.126;2022-07-15T02:30:08;91425.25;;;19.92;66.57
54996;BME280;40893;47.146;9.126;2022-07-15T02:32:33;91431.22;;;19.92;68.03
54996;BME280;40893;47.146;9.126;2022-07-15T02:34:59;91436.22;;;19.98;67.71
54996;BME280;40893;47.146;9.126;2022-07-15T02:37:24;91432.16;;;20.00;67.20
54996;BME280;40893;47.146;9.126;2022-07-15T02:39:50;91435.22;;;20.02;66.77
54996;BME280;40893;47.146;9.126;2022-07-15T02:42:15;91428.16;;;20.03;66.63
54996;BME280;40893;47.146;9.126;2022-07-15T02:44:41;91433.47;;;20.06;67.02
54996;BME280;40893;47.146;9.126;2022-07-15T02:47:06;91428.59;;;20.05;68.31
54996;BME280;40893;47.146;9.126;2022-07-15T02:49:32;91434.78;;;20.00;67.33
54996;BME280;40893;47.146;9.126;2022-07-15T02:51:58;91430.31;;;20.01;66.61
54996;BME280;40893;47.146;9.126;2022-07-15T02:54:23;91425.56;;;20.03;67.64
54996;BME280;40893;47.146;9.126;2022-07-15T02:56:49;91431.94;;;20.05;66.90
54996;BME280;40893;47.146;9.126;2022-07-15T02:59:14;91431.19;;;20.05;67.27
54996;BME280;40893;47.146;9.126;2022-07-15T03:01:40;91431.63;;;20.07;67.25
54996;BME280;40893;47.146;9.126;2022-07-15T03:04:05;91442.69;;;20.04;66.39
54996;BME280;40893;47.146;9.126;2022-07-15T03:06:31;91443.03;;;20.02;66.79
54996;BME280;40893;47.146;9.126;2022-07-15T03:08:59;91448.78;;;19.96;67.52
54996;BME280;40893;47.146;9.126;2022-07-15T03:11:24;91444.25;;;19.92;67.67
54996;BME280;40893;47.146;9.126;2022-07-15T03:13:50;91442.59;;;19.88;67.34
54996;BME280;40893;47.146;9.126;2022-07-15T03:16:15;91440.13;;;19.79;67.64
54996;BME280;40893;47.146;9.126;2022-07-15T03:18:41;91437.84;;;19.78;68.52
54996;BME280;40893;47.146;9.126;2022-07-15T03:21:07;91445.59;;;19.74;68.24
54996;BME280;40893;47.146;9.126;2022-07-15T03:23:32;91456.00;;;19.74;67.43
54996;BME280;40893;47.146;9.126;2022-07-15T03:25:58;91459.44;;;19.66;67.78
54996;BME280;40893;47.146;9.126;2022-07-15T03:28:23;91460.78;;;19.60;68.98
54996;BME280;40893;47.146;9.126;2022-07-15T03:30:49;91455.34;;;19.53;68.72
54996;BME280;40893;47.146;9.126;2022-07-15T03:33:14;91454.03;;;19.47;69.05
54996;BME280;40893;47.146;9.126;2022-07-15T03:35:40;91449.78;;;19.42;70.02
54996;BME280;40893;47.146;9.126;2022-07-15T03:38:08;91450.13;;;19.41;69.56
54996;BME280;40893;47.146;9.126;2022-07-15T03:40:34;91454.78;;;19.35;69.05
54996;BME280;40893;47.146;9.126;2022-07-15T03:42:59;91457.06;;;19.25;70.62
54996;BME280;40893;47.146;9.126;2022-07-15T03:45:25;91463.97;;;19.20;70.32
54996;BME280;40893;47.146;9.126;2022-07-15T03:47:50;91463.97;;;19.20;70.65
54996;BME280;40893;47.146;9.126;2022-07-15T03:50:16;91467.25;;;19.17;71.16
54996;BME280;40893;47.146;9.126;2022-07-15T03:52:42;91467.56;;;19.16;70.74
54996;BME280;40893;47.146;9.126;2022-07-15T03:55:08;91471.13;;;19.11;70.88
54996;BME280;40893;47.146;9.126;2022-07-15T03:57:35;91473.91;;;18.94;72.35
54996;BME280;40893;47.146;9.126;2022-07-15T04:00:00;91473.75;;;18.78;72.10
54996;BME280;40893;47.146;9.126;2022-07-15T04:02:26;91465.75;;;18.71;72.79
54996;BME280;40893;47.146;9.126;2022-07-15T04:04:52;91464.22;;;18.70;73.32
54996;BME280;40893;47.146;9.126;2022-07-15T04:07:17;91467.75;;;18.66;74.15
54996;BME280;40893;47.146;9.126;2022-07-15T04:09:43;91466.50;;;18.72;72.96
54996;BME280;40893;47.146;9.126;2022-07-15T04:12:08;91474.16;;;18.68;73.72
54996;BME280;40893;47.146;9.126;2022-07-15T04:14:35;91470.50;;;18.69;74.22
54996;BME280;40893;47.146;9.126;2022-07-15T04:17:01;91471.47;;;18.77;73.87
54996;BME280;40893;47.146;9.126;2022-07-15T04:19:28;91476.16;;;18.83;73.69
54996;BME280;40893;47.146;9.126;2022-07-15T04:21:53;91468.13;;;18.76;73.96
54996;BME280;40893;47.146;9.126;2022-07-15T04:24:19;91478.59;;;18.68;74.20
54996;BME280;40893;47.146;9.126;2022-07-15T04:26:44;91474.34;;;18.63;73.97
54996;BME280;40893;47.146;9.126;2022-07-15T04:29:10;91479.81;;;18.70;74.38
54996;BME280;40893;47.146;9.126;2022-07-15T04:31:35;91486.31;;;18.76;74.11
54996;BME280;40893;47.146;9.126;2022-07-15T04:34:01;91471.72;;;18.84;73.71
54996;BME280;40893;47.146;9.126;2022-07-15T04:36:26;91480.50;;;18.92;73.12
54996;BME280;40893;47.146;9.126;2022-07-15T04:38:52;91483.13;;;18.92;73.77
54996;BME280;40893;47.146;9.126;2022-07-15T04:41:18;91477.91;;;18.92;74.51
54996;BME280;40893;47.146;9.126;2022-07-15T04:43:43;91483.66;;;18.97;74.52
54996;BME280;40893;47.146;9.126;2022-07-15T04:46:09;91485.84;;;18.95;75.22
54996;BME280;40893;47.146;9.126;2022-07-15T04:48:34;91486.16;;;18.94;75.80
54996;BME280;40893;47.146;9.126;2022-07-15T04:51:18;91483.88;;;18.92;72.09
54996;BME280;40893;47.146;9.126;2022-07-15T04:53:44;91492.13;;;18.94;72.93
54996;BME280;40893;47.146;9.126;2022-07-15T04:56:09;91493.28;;;18.97;71.98
54996;BME280;40893;47.146;9.126;2022-07-15T04:58:35;91489.84;;;18.93;72.21
54996;BME280;40893;47.146;9.126;2022-07-15T05:01:00;91491.53;;;18.89;73.89
54996;BME280;40893;47.146;9.126;2022-07-15T05:03:26;91494.41;;;18.96;74.53
54996;BME280;40893;47.146;9.126;2022-07-15T05:05:51;91494.19;;;19.01;74.73
54996;BME280;40893;47.146;9.126;2022-07-15T05:08:17;91500.69;;;19.07;74.89
54996;BME280;40893;47.146;9.126;2022-07-15T05:10:42;91493.13;;;19.14;73.32
54996;BME280;40893;47.146;9.126;2022-07-15T05:13:08;91489.22;;;19.20;72.39
54996;BME280;40893;47.146;9.126;2022-07-15T05:15:33;91497.25;;;19.27;74.07
54996;BME280;40893;47.146;9.126;2022-07-15T05:17:59;91495.50;;;19.31;73.84
54996;BME280;40893;47.146;9.126;2022-07-15T05:20:24;91494.13;;;19.34;74.88
54996;BME280;40893;47.146;9.126;2022-07-15T05:22:50;91492.41;;;19.38;73.62
54996;BME280;40893;47.146;9.126;2022-07-15T05:25:16;91499.66;;;19.44;74.12
54996;BME280;40893;47.146;9.126;2022-07-15T05:27:41;91503.16;;;19.48;73.80
54996;BME280;40893;47.146;9.126;2022-07-15T05:30:08;91498.84;;;19.52;73.89
54996;BME280;40893;47.146;9.126;2022-07-15T05:32:33;91498.50;;;19.54;74.38
54996;BME280;40893;47.146;9.126;2022-07-15T05:34:59;91497.41;;;19.55;75.06
54996;BME280;40893;47.146;9.126;2022-07-15T05:37:24;91504.03;;;19.52;74.51
54996;BME280;40893;47.146;9.126;2022-07-15T05:39:50;91501.75;;;19.51;72.92
54996;BME280;40893;47.146;9.126;2022-07-15T05:42:24;91520.16;;;19.46;70.81
54996;BME280;40893;47.146;9.126;2022-07-15T05:44:49;91509.41;;;19.35;70.20
54996;BME280;40893;47.146;9.126;2022-07-15T05:47:16;91516.00;;;19.33;69.17
54996;BME280;40893;47.146;9.126;2022-07-15T05:49:41;91518.50;;;19.41;71.84
54996;BME280;40893;47.146;9.126;2022-07-15T05:52:07;91519.63;;;19.40;69.75
54996;BME280;40893;47.146;9.126;2022-07-15T05:54:33;91520.78;;;19.43;71.15
54996;BME280;40893;47.146;9.126;2022-07-15T05:56:59;91526.56;;;19.48;70.45
54996;BME280;40893;47.146;9.126;2022-07-15T05:59:24;91517.78;;;19.53;72.13
54996;BME280;40893;47.146;9.126;2022-07-15T06:01:50;91525.94;;;19.51;72.75
54996;BME280;40893;47.146;9.126;2022-07-15T06:04:15;91528.19;;;19.53;70.56
54996;BME280;40893;47.146;9.126;2022-07-15T06:06:41;91523.44;;;19.55;70.45
54996;BME280;40893;47.146;9.126;2022-07-15T06:09:06;91522.47;;;19.60;71.01
54996;BME280;40893;47.146;9.126;2022-07-15T06:11:32;91526.28;;;19.62;72.61
54996;BME280;40893;47.146;9.126;2022-07-15T06:13:59;91532.22;;;19.63;69.86
54996;BME280;40893;47.146;9.126;2022-07-15T06:16:25;91515.94;;;19.66;70.80
54996;BME280;40893;47.146;9.126;2022-07-15T06:18:50;91522.66;;;19.67;71.52
54996;BME280;40893;47.146;9.126;2022-07-15T06:21:16;91532.75;;;19.68;70.41
54996;BME280;40893;47.146;9.126;2022-07-15T06:23:41;91523.75;;;19.66;70.23
54996;BME280;40893;47.146;9.126;2022-07-15T06:26:07;91523.13;;;19.69;70.32
54996;BME280;40893;47.146;9.126;2022-07-15T06:28:32;91529.53;;;19.71;72.43
54996;BME280;40893;47.146;9.126;2022-07-15T06:30:58;91528.44;;;19.72;70.41
54996;BME280;40893;47.146;9.126;2022-07-15T06:33:24;91531.88;;;19.76;68.80
54996;BME280;40893;47.146;9.126;2022-07-15T06:35:49;91528.88;;;19.74;68.86
54996;BME280;40893;47.146;9.126;2022-07-15T06:38:15;91537.09;;;19.76;69.26
54996;BME280;40893;47.146;9.126;2022-07-15T06:40:41;91533.41;;;19.77;69.02
54996;BME280;40893;47.146;9.126;2022-07-15T06:43:06;91534.41;;;19.85;68.80
54996;BME280;40893;47.146;9.126;2022-07-15T06:45:32;91532.31;;;20.03;68.41
54996;BME280;40893;47.146;9.126;2022-07-15T06:47:57;91529.72;;;20.03;68.19
54996;BME280;40893;47.146;9.126;2022-07-15T06:50:23;91531.44;;;20.11;66.82
54996;BME280;40893;47.146;9.126;2022-07-15T06:52:50;91531.88;;;20.13;66.59
54996;BME280;40893;47.146;9.126;2022-07-15T06:55:15;91533.63;;;20.09;66.86
54996;BME280;40893;47.146;9.126;2022-07-15T06:57:40;91534.72;;;20.08;66.53
54996;BME280;40893;47.146;9.126;2022-07-15T07:00:07;91528.41;;;20.09;69.11
54996;BME280;40893;47.146;9.126;2022-07-15T07:02:34;91529.91;;;20.22;67.85
54996;BME280;40893;47.146;9.126;2022-07-15T07:05:00;91529.78;;;20.30;68.26
54996;BME280;40893;47.146;9.126;2022-07-15T07:07:25;91522.50;;;20.48;67.14
54996;BME280;40893;47.146;9.126;2022-07-15T07:09:51;91527.34;;;20.62;67.43
54996;BME280;40893;47.146;9.126;2022-07-15T07:12:16;91515.34;;;20.73;65.84
54996;BME280;40893;47.146;9.126;2022-07-15T07:14:42;91526.63;;;20.77;65.76
54996;BME280;40893;47.146;9.126;2022-07-15T07:17:08;91521.28;;;20.86;68.16
54996;BME280;40893;47.146;9.126;2022-07-15T07:19:34;91527.00;;;20.91;65.98
54996;BME280;40893;47.146;9.126;2022-07-15T07:21:59;91521.91;;;21.11;66.22
54996;BME280;40893;47.146;9.126;2022-07-15T07:24:25;91529.28;;;21.21;64.48
54996;BME280;40893;47.146;9.126;2022-07-15T07:26:50;91520.00;;;21.23;64.27
54996;BME280;40893;47.146;9.126;2022-07-15T07:29:16;91526.41;;;21.26;64.46
54996;BME280;40893;47.146;9.126;2022-07-15T07:31:48;91529.03;;;21.26;63.56
54996;BME280;40893;47.146;9.126;2022-07-15T07:34:14;91530.88;;;21.25;64.05
54996;BME280;40893;47.146;9.126;2022-07-15T07:36:40;91526.31;;;21.22;65.12
54996;BME280;40893;47.146;9.126;2022-07-15T07:39:06;91534.59;;;21.24;64.10
54996;BME280;40893;47.146;9.126;2022-07-15T07:41:31;91531.59;;;21.10;64.00
54996;BME280;40893;47.146;9.126;2022-07-15T07:43:57;91525.75;;;21.01;64.69
54996;BME280;40893;47.146;9.126;2022-07-15T07:46:23;91535.03;;;20.98;65.58
54996;BME280;40893;47.146;9.126;2022-07-15T07:48:49;91529.44;;;21.00;65.54
54996;BME280;40893;47.146;9.126;2022-07-15T07:51:16;91526.28;;;21.07;64.34
54996;BME280;40893;47.146;9.126;2022-07-15T07:53:42;91528.25;;;21.10;67.32
54996;BME280;40893;47.146;9.126;2022-07-15T07:56:08;91527.22;;;21.14;64.94
54996;BME280;40893;47.146;9.126;2022-07-15T07:58:33;91525.69;;;21.13;64.20
54996;BME280;40893;47.146;9.126;2022-07-15T08:00:59;91521.56;;;21.12;63.78
54996;BME280;40893;47.146;9.126;2022-07-15T08:03:25;91515.53;;;21.08;65.66
54996;BME280;40893;47.146;9.126;2022-07-15T08:05:52;91518.47;;;21.07;65.13
54996;BME280;40893;47.146;9.126;2022-07-15T08:08:19;91520.75;;;21.08;65.31
54996;BME280;40893;47.146;9.126;2022-07-15T08:10:48;91524.44;;;21.07;63.63
54996;BME280;40893;47.146;9.126;2022-07-15T08:13:18;91519.63;;;21.21;64.47
54996;BME280;40893;47.146;9.126;2022-07-15T08:15:44;91523.19;;;21.17;63.22
54996;BME280;40893;47.146;9.126;2022-07-15T08:18:13;91527.28;;;21.02;62.92
54996;BME280;40893;47.146;9.126;2022-07-15T08:20:39;91526.19;;;21.03;62.46
54996;BME280;40893;47.146;9.126;2022-07-15T08:23:06;91536.66;;;20.91;63.41
54996;BME280;40893;47.146;9.126;2022-07-15T08:25:35;91532.00;;;20.96;64.50
54996;BME280;40893;47.146;9.126;2022-07-15T08:28:02;91528.03;;;21.02;63.55
54996;BME280;40893;47.146;9.126;2022-07-15T08:30:30;91527.31;;;21.18;63.71
54996;BME280;40893;47.146;9.126;2022-07-15T08:32:57;91530.22;;;21.28;63.94
54996;BME280;40893;47.146;9.126;2022-07-15T08:35:23;91536.88;;;21.42;64.20
54996;BME280;40893;47.146;9.126;2022-07-15T08:37:49;91532.09;;;21.44;64.63
54996;BME280;40893;47.146;9.126;2022-07-15T08:40:15;91529.38;;;21.56;63.74
54996;BME280;40893;47.146;9.126;2022-07-15T08:42:42;91538.16;;;21.63;61.86
54996;BME280;40893;47.146;9.126;2022-07-15T08:45:11;91535.47;;;21.76;62.63
54996;BME280;40893;47.146;9.126;2022-07-15T08:47:40;91532.75;;;21.88;62.55
54996;BME280;40893;47.146;9.126;2022-07-15T08:50:08;91529.31;;;21.99;60.33
54996;BME280;40893;47.146;9.126;2022-07-15T08:52:36;91533.41;;;22.16;62.31
54996;BME280;40893;47.146;9.126;2022-07-15T08:55:02;91536.91;;;22.24;59.71
54996;BME280;40893;47.146;9.126;2022-07-15T08:57:29;91536.16;;;22.58;58.02
54996;BME280;40893;47.146;9.126;2022-07-15T08:59:55;91546.09;;;22.68;58.54
54996;BME280;40893;47.146;9.126;2022-07-15T09:02:22;91535.66;;;22.88;59.30
54996;BME280;40893;47.146;9.126;2022-07-15T09:15:40;91535.25;;;23.70;58.55
54996;BME280;40893;47.146;9.126;2022-07-15T09:18:15;91527.41;;;23.96;55.80
54996;BME280;40893;47.146;9.126;2022-07-15T09:20:42;91528.72;;;24.09;57.34
54996;BME280;40893;47.146;9.126;2022-07-15T09:23:09;91536.84;;;24.27;57.25
54996;BME280;40893;47.146;9.126;2022-07-15T09:25:37;91528.00;;;24.35;57.27
54996;BME280;40893;47.146;9.126;2022-07-15T09:28:06;91538.13;;;24.37;52.13
54996;BME280;40893;47.146;9.126;2022-07-15T09:30:41;91531.53;;;24.50;54.89
54996;BME280;40893;47.146;9.126;2022-07-15T09:33:30;91534.31;;;24.60;54.03
54996;BME280;40893;47.146;9.126;2022-07-15T09:36:24;91532.84;;;24.63;53.72
54996;BME280;40893;47.146;9.126;2022-07-15T09:38:55;91528.72;;;24.62;56.36
54996;BME280;40893;47.146;9.126;2022-07-15T09:44:06;91524.13;;;24.55;53.86
54996;BME280;40893;47.146;9.126;2022-07-15T09:46:53;91538.78;;;24.30;55.52
54996;BME280;40893;47.146;9.126;2022-07-15T09:51:56;91537.38;;;24.36;56.26
54996;BME280;40893;47.146;9.126;2022-07-15T09:54:24;91536.34;;;24.44;55.54
54996;BME280;40893;47.146;9.126;2022-07-15T09:56:50;91535.19;;;24.42;57.29
54996;BME280;40893;47.146;9.126;2022-07-15T09:59:17;91532.50;;;24.35;57.54
54996;BME280;40893;47.146;9.126;2022-07-15T10:01:44;91534.50;;;24.45;55.19
54996;BME280;40893;47.146;9.126;2022-07-15T10:04:14;91527.56;;;24.59;55.40
54996;BME280;40893;47.146;9.126;2022-07-15T10:06:42;91534.09;;;24.73;54.25
54996;BME280;40893;47.146;9.126;2022-07-15T10:09:09;91526.34;;;24.83;54.19
54996;BME280;40893;47.146;9.126;2022-07-15T10:11:43;91531.38;;;24.95;59.66
54996;BME280;40893;47.146;9.126;2022-07-15T10:17:07;91528.31;;;25.23;55.62
54996;BME280;40893;47.146;9.126;2022-07-15T10:28:05;91521.84;;;25.54;52.84
54996;BME280;40893;47.146;9.126;2022-07-15T10:30:35;91516.56;;;25.51;52.33
54996;BME280;40893;47.146;9.126;2022-07-15T10:33:19;91506.78;;;25.48;54.71
54996;BME280;40893;47.146;9.126;2022-07-15T10:35:53;91504.38;;;25.32;53.57
54996;BME280;40893;47.146;9.126;2022-07-15T10:38:35;91509.53;;;25.21;51.99
54996;BME280;40893;47.146;9.126;2022-07-15T10:41:06;91497.75;;;25.05;54.53
54996;BME280;40893;47.146;9.126;2022-07-15T10:43:50;91502.97;;;25.01;53.05
54996;BME280;40893;47.146;9.126;2022-07-15T10:48:42;91497.56;;;24.90;58.20
54996;BME280;40893;47.146;9.126;2022-07-15T10:51:08;91500.53;;;24.89;53.74
54996;BME280;40893;47.146;9.126;2022-07-15T10:53:43;91497.47;;;24.83;56.63
54996;BME280;40893;47.146;9.126;2022-07-15T11:01:41;91484.06;;;25.25;56.92
54996;BME280;40893;47.146;9.126;2022-07-15T11:04:23;91485.59;;;25.26;54.75
54996;BME280;40893;47.146;9.126;2022-07-15T11:09:49;91474.84;;;25.42;55.13
54996;BME280;40893;47.146;9.126;2022-07-15T11:12:21;91470.44;;;25.53;54.53
54996;BME280;40893;47.146;9.126;2022-07-15T11:17:40;91473.59;;;25.70;54.35
54996;BME280;40893;47.146;9.126;2022-07-15T11:20:09;91463.09;;;25.70;52.47
54996;BME280;40893;47.146;9.126;2022-07-15T11:22:37;91465.63;;;25.62;52.11
54996;BME280;40893;47.146;9.126;2022-07-15T11:25:05;91464.84;;;25.58;47.53
54996;BME280;40893;47.146;9.126;2022-07-15T11:27:31;91452.78;;;25.50;49.42
54996;BME280;40893;47.146;9.126;2022-07-15T11:29:59;91461.81;;;25.56;47.34
54996;BME280;40893;47.146;9.126;2022-07-15T11:32:29;91452.19;;;25.67;47.11
54996;BME280;40893;47.146;9.126;2022-07-15T11:34:59;91448.88;;;25.78;46.71
54996;BME280;40893;47.146;9.126;2022-07-15T11:37:26;91452.91;;;25.64;48.21
54996;BME280;40893;47.146;9.126;2022-07-15T11:42:30;91444.09;;;25.46;49.29
54996;BME280;40893;47.146;9.126;2022-07-15T11:45:15;91461.78;;;25.53;47.89
54996;BME280;40893;47.146;9.126;2022-07-15T11:47:51;91454.66;;;25.50;47.23
54996;BME280;40893;47.146;9.126;2022-07-15T11:50:17;91457.63;;;25.48;52.96
54996;BME280;40893;47.146;9.126;2022-07-15T11:52:45;91448.66;;;25.49;52.21
54996;BME280;40893;47.146;9.126;2022-07-15T11:55:11;91448.69;;;25.56;49.27
54996;BME280;40893;47.146;9.126;2022-07-15T11:57:36;91443.16;;;25.65;50.09
54996;BME280;40893;47.146;9.126;2022-07-15T12:00:03;91445.47;;;25.77;49.08
54996;BME280;40893;47.146;9.126;2022-07-15T12:02:28;91454.16;;;25.85;48.00
54996;BME280;40893;47.146;9.126;2022-07-15T12:05:05;91463.22;;;25.91;48.66
54996;BME280;40893;47.146;9.126;2022-07-15T12:07:47;91459.47;;;25.92;50.85
54996;BME280;40893;47.146;9.126;2022-07-15T12:10:14;91453.41;;;25.81;50.65
54996;BME280;40893;47.146;9.126;2022-07-15T12:12:53;91460.81;;;25.68;48.21
54996;BME280;40893;47.146;9.126;2022-07-15T12:15:19;91453.97;;;25.60;48.40
54996;BME280;40893;47.146;9.126;2022-07-15T12:17:46;91460.78;;;25.61;49.95
54996;BME280;40893;47.146;9.126;2022-07-15T12:20:13;91446.53;;;25.62;47.50
54996;BME280;40893;47.146;9.126;2022-07-15T12:23:11;91452.81;;;25.57;46.96
54996;BME280;40893;47.146;9.126;2022-07-15T12:25:36;91448.31;;;25.58;48.63
54996;BME280;40893;47.146;9.126;2022-07-15T12:28:02;91433.06;;;25.71;47.53
54996;BME280;40893;47.146;9.126;2022-07-15T12:30:36;91458.25;;;25.79;48.73
54996;BME280;40893;47.146;9.126;2022-07-15T12:33:20;91450.47;;;25.96;50.93
54996;BME280;40893;47.146;9.126;2022-07-15T12:35:46;91460.59;;;25.91;49.28
54996;BME280;40893;47.146;9.126;2022-07-15T12:38:28;91450.72;;;25.74;51.35
54996;BME280;40893;47.146;9.126;2022-07-15T12:41:10;91450.31;;;25.68;48.54
54996;BME280;40893;47.146;9.126;2022-07-15T12:43:53;91446.53;;;25.65;47.77
54996;BME280;40893;47.146;9.126;2022-07-15T12:46:20;91450.28;;;25.64;47.02
54996;BME280;40893;47.146;9.126;2022-07-15T12:49:06;91457.28;;;25.50;50.16
54996;BME280;40893;47.146;9.126;2022-07-15T12:51:33;91442.63;;;25.52;51.70
54996;BME280;40893;47.146;9.126;2022-07-15T12:54:03;91463.25;;;25.47;52.69
54996;BME280;40893;47.146;9.126;2022-07-15T12:56:30;91445.53;;;25.40;51.11
54996;BME280;40893;47.146;9.126;2022-07-15T12:58:56;91446.69;;;25.39;48.01
54996;BME280;40893;47.146;9.126;2022-07-15T13:01:21;91452.38;;;25.48;50.43
54996;BME280;40893;47.146;9.126;2022-07-15T13:03:47;91454.94;;;25.41;48.27
54996;BME280;40893;47.146;9.126;2022-07-15T13:06:12;91460.19;;;25.41;49.40
54996;BME280;40893;47.146;9.126;2022-07-15T13:08:40;91442.91;;;25.37;50.39
54996;BME280;40893;47.146;9.126;2022-07-15T13:11:08;91450.00;;;25.32;48.95
54996;BME280;40893;47.146;9.126;2022-07-15T13:13:36;91442.03;;;25.22;49.94
54996;BME280;40893;47.146;9.126;2022-07-15T13:16:02;91445.00;;;25.17;49.11
54996;BME280;40893;47.146;9.126;2022-07-15T13:18:29;91449.09;;;25.18;47.44
54996;BME280;40893;47.146;9.126;2022-07-15T13:20:56;91451.81;;;25.28;50.91
54996;BME280;40893;47.146;9.126;2022-07-15T13:23:23;91447.72;;;25.27;47.73
54996;BME280;40893;47.146;9.126;2022-07-15T13:25:49;91445.31;;;25.12;48.23
54996;BME280;40893;47.146;9.126;2022-07-15T13:28:16;91448.13;;;24.92;50.41
54996;BME280;40893;47.146;9.126;2022-07-15T13:30:42;91450.75;;;24.92;48.38
54996;BME280;40893;47.146;9.126;2022-07-15T13:33:08;91449.34;;;25.02;51.10
54996;BME280;40893;47.146;9.126;2022-07-15T13:35:34;91450.09;;;25.03;48.34
54996;BME280;40893;47.146;9.126;2022-07-15T13:37:59;91442.69;;;25.12;49.96
54996;BME280;40893;47.146;9.126;2022-07-15T13:40:25;91434.75;;;25.05;49.14
54996;BME280;40893;47.146;9.126;2022-07-15T13:42:50;91443.44;;;25.12;49.84
54996;BME280;40893;47.146;9.126;2022-07-15T13:45:17;91444.56;;;25.11;49.53